Terminal Aerodrome Forecast
Issued by NWS

Home | Current Version | Previous Version | Text Only | Print | Product List | Glossary On
Versions: 1 2 3 4 5 6 7 8 9 10 11 12 13 14 15 16 17 18 19 20 21 22 23 24 25 26 27 28 29 30 31 32 33 34 35 36 37 38 39 40 41 42 43 44 45 46 47 48 49
000
FTAK31 PANC 300720 AAA
TAFACD
TAF AMD
PACD 300720Z 3007/0106 30010KT 3SM BR SCT002 BKN005
      TEMPO 3007/3010 1SM BR BKN002
     FM301000 30008KT 1SM BR BKN002
     FM301800 32008KT P6SM SCT008 BKN040
     FM010500 33008KT P6SM BKN006=

USA.gov is the U.S. government's official web portal to all federal, state and local government web resources and services.